Urb Forest Hls, Puerto Rico
Current Conditions -  °F | °C
As of 4:56 PM on Thursday 27 Nov 2014 (Local Time) from TJSJ Reporting Station
Scattered Clouds Scattered Clouds  
Wind Chill: 82°   Ceiling: Unl
Heat Index: 86°   Visibility: 10mi
Dew Point: 70°   Wind: 10mph
Humidity: 67%   Direction: 50°NE
Pressure: 29.93"   Gusts: NA
Location:  18.1781°N, 66.1167°W
Report Text: TJSJ 272056Z 05009KT 10SM SCT032 SCT050 28/21 A2993 RMK AO2 SLP134 T02780211 55003
Loading
Personal Weather Stations






























Interactive Weather Map New forecast layout! Learn more

10-Day Weather Forecast

Advertisements
Track Severe Weather on mobile